Time;durP1;ratioP1;P1;durP2;ratioP2;P2;SDS_P1;SDS_P2;PMS_P1;PMS_P2;Temp;Humidity;BMP_temperature;BMP_pressure;BME280_temperature;BME280_humidity;BME280_pressure;Samples;Min_cycle;Max_cycle;Signal;HPM_P1;HPM_P2
2022/11/01 00:02:21;;;;;;;5.90;1.60;;;18.80;73.90;;;;;;7368271;19;20082;-83
2022/11/01 00:04:49;;;;;;;6.50;1.67;;;18.50;72.60;;;;;;7393256;19;20458;-83
2022/11/01 00:07:18;;;;;;;7.05;1.50;;;18.40;72.80;;;;;;7371776;19;20007;-84
2022/11/01 00:09:47;;;;;;;4.55;1.02;;;18.20;72.50;;;;;;7382082;19;20389;-83
2022/11/01 00:12:15;;;;;;;5.25;1.20;;;18.30;72.10;;;;;;7384881;19;20062;-82
2022/11/01 00:14:47;;;;;;;10.65;1.55;;;18.30;72.30;;;;;;7383858;19;20117;-82
2022/11/01 00:17:15;;;;;;;8.07;1.95;;;18.30;72.30;;;;;;7376825;19;20019;-82
2022/11/01 00:19:44;;;;;;;3.78;1.23;;;18.30;71.30;;;;;;7397110;19;20094;-82
2022/11/01 00:22:13;;;;;;;9.05;1.48;;;18.20;71.10;;;;;;7378199;19;20731;-84
2022/11/01 00:24:41;;;;;;;7.72;1.85;;;18.10;71.20;;;;;;7378953;19;20094;-84
2022/11/01 00:27:10;;;;;;;6.07;1.50;;;18.10;70.80;;;;;;7376792;19;20010;-84
2022/11/01 00:29:39;;;;;;;7.45;1.25;;;18.20;70.50;;;;;;7377574;19;20070;-82
2022/11/01 00:32:10;;;;;;;6.18;1.27;;;18.40;70.20;;;;;;7373659;19;20014;-81
2022/11/01 00:34:39;;;;;;;3.67;1.25;;;18.50;70.20;;;;;;7398140;19;20430;-82
2022/11/01 00:37:07;;;;;;;5.57;1.27;;;18.60;70.50;;;;;;7373923;19;20011;-81
2022/11/01 00:39:36;;;;;;;11.95;1.55;;;18.30;70.00;;;;;;7375840;19;20054;-82
2022/11/01 00:42:06;;;;;;;6.97;1.00;;;18.30;69.60;;;;;;7375679;19;20014;-81
2022/11/01 00:44:35;;;;;;;19.08;1.63;;;18.20;68.80;;;;;;7372830;19;20457;-83
2022/11/01 00:47:03;;;;;;;5.07;1.10;;;18.00;68.70;;;;;;7373614;19;20081;-82
2022/11/01 00:49:34;;;;;;;9.65;1.58;;;18.00;68.90;;;;;;7393136;19;20019;-82
2022/11/01 00:52:03;;;;;;;7.50;1.17;;;17.80;68.30;;;;;;7374259;19;20803;-82
2022/11/01 00:54:32;;;;;;;5.50;1.00;;;17.70;68.40;;;;;;7379249;19;20014;-82
2022/11/01 00:57:00;;;;;;;5.70;1.05;;;17.90;68.50;;;;;;7384178;19;20470;-84
2022/11/01 00:59:29;;;;;;;5.38;0.98;;;18.00;68.10;;;;;;7379683;19;20020;-83
2022/11/01 01:01:58;;;;;;;7.38;1.27;;;17.90;68.00;;;;;;7374579;19;20014;-82
2022/11/01 01:04:26;;;;;;;4.93;1.10;;;18.00;68.30;;;;;;7392986;19;20023;-83
2022/11/01 01:06:58;;;;;;;8.13;1.20;;;18.10;67.90;;;;;;7372360;19;20031;-82
2022/11/01 01:09:26;;;;;;;5.38;1.13;;;18.10;67.60;;;;;;7373483;19;20492;-83
2022/11/01 01:11:57;;;;;;;6.50;0.90;;;18.20;67.20;;;;;;7373943;19;20102;-84
2022/11/01 01:14:26;;;;;;;7.40;1.30;;;18.10;67.00;;;;;;7374569;19;20031;-82
2022/11/01 01:16:55;;;;;;;6.07;1.00;;;18.20;66.70;;;;;;7390721;19;20010;-83
2022/11/01 01:19:24;;;;;;;6.50;1.23;;;18.20;66.40;;;;;;7370428;19;20082;-82
2022/11/01 01:21:52;;;;;;;8.88;1.20;;;18.10;66.30;;;;;;7372869;19;20043;-84
2022/11/01 01:24:24;;;;;;;9.57;1.30;;;18.00;66.10;;;;;;7372146;19;20022;-83
2022/11/01 01:26:52;;;;;;;;;;;17.90;66.90;;;;;;7371932;19;20018;-82
2022/11/01 01:29:24;;;;;;;9.38;1.23;;;17.30;67.00;;;;;;7371960;19;19918;-82
2022/11/01 01:31:53;;;;;;;18.17;1.63;;;17.40;67.40;;;;;;7402484;19;20011;-83
2022/11/01 01:34:22;;;;;;;12.07;1.23;;;17.30;67.10;;;;;;7378760;19;20442;-82
2022/11/01 01:36:51;;;;;;;14.77;1.40;;;17.20;67.60;;;;;;7382028;19;20011;-83
2022/11/01 01:39:20;;;;;;;5.88;1.33;;;17.20;66.40;;;;;;7392002;19;20734;-86
2022/11/01 01:41:57;;;;;;;14.15;1.15;;;17.30;66.60;;;;;;7381942;19;20054;-81
2022/11/01 01:45:10;;;;;;;7.72;1.17;;;17.30;66.40;;;;;;7372601;19;20017;-82
2022/11/01 01:47:42;;;;;;;13.18;1.50;;;17.30;66.20;;;;;;7369575;19;20007;-83
2022/11/01 01:50:12;;;;;;;;;;;17.30;65.80;;;;;;7373487;19;20719;-83
2022/11/01 01:52:46;;;;;;;11.77;1.67;;;17.50;66.10;;;;;;7391946;19;19922;-84
2022/11/01 01:55:17;;;;;;;6.95;1.33;;;17.40;65.60;;;;;;7369198;19;20023;-82
2022/11/01 01:57:49;;;;;;;9.73;1.20;;;17.30;66.40;;;;;;7370389;19;20022;-83
2022/11/01 02:00:18;;;;;;;13.13;1.55;;;17.30;66.20;;;;;;7369199;19;20119;-83
2022/11/01 02:02:47;;;;;;;10.90;1.42;;;17.20;66.20;;;;;;7367345;19;20096;-84
2022/11/01 02:05:22;;;;;;;8.02;1.42;;;17.10;66.60;;;;;;7369263;19;20038;-83
2022/11/01 02:07:53;;;;;;;16.65;1.50;;;17.10;66.40;;;;;;7390803;19;20347;-83
2022/11/01 02:10:22;;;;;;;5.78;1.15;;;17.10;66.60;;;;;;7370593;19;20043;-84
2022/11/01 02:12:54;;;;;;;10.55;1.30;;;17.20;66.60;;;;;;7369327;19;20130;-84
2022/11/01 02:15:30;;;;;;;9.43;1.55;;;17.30;66.50;;;;;;7370139;19;20010;-84
2022/11/01 02:18:10;;;;;;;15.32;1.80;;;17.30;66.50;;;;;;7369833;19;20021;-84
2022/11/01 02:20:54;;;;;;;9.18;1.50;;;17.30;66.50;;;;;;7371181;19;20022;-84
2022/11/01 02:23:58;;;;;;;10.20;1.63;;;17.30;66.20;;;;;;7381300;19;20018;-83
2022/11/01 02:27:03;;;;;;;13.43;1.70;;;17.20;65.90;;;;;;7374031;19;20564;-84
2022/11/01 02:30:05;;;;;;;9.25;1.25;;;17.10;65.80;;;;;;7373489;19;20089;-83
2022/11/01 02:32:48;;;;;;;8.93;1.35;;;17.10;65.90;;;;;;7371914;19;20018;-83
2022/11/01 02:35:24;;;;;;;14.30;2.03;;;17.10;65.50;;;;;;7366738;19;20003;-84
2022/11/01 02:37:57;;;;;;;9.40;1.23;;;17.00;65.40;;;;;;7386611;19;20336;-83
2022/11/01 02:40:34;;;;;;;23.20;3.05;;;17.20;65.80;;;;;;7366445;19;20625;-83
2022/11/01 02:43:06;;;;;;;14.90;2.22;;;17.20;65.70;;;;;;7364381;19;20027;-83
2022/11/01 02:45:38;;;;;;;17.67;2.22;;;17.20;65.40;;;;;;7366211;19;20010;-83
2022/11/01 02:48:10;;;;;;;10.73;1.85;;;17.10;65.10;;;;;;7363944;19;20025;-82
2022/11/01 02:50:44;;;;;;;8.98;1.73;;;17.20;65.30;;;;;;7368466;19;20018;-84
2022/11/01 02:53:13;;;;;;;9.52;1.73;;;17.10;65.70;;;;;;7369681;19;20082;-82
2022/11/01 02:55:42;;;;;;;21.55;2.10;;;16.90;65.50;;;;;;7392317;19;20106;-83
2022/11/01 02:58:18;;;;;;;11.52;1.30;;;16.80;65.60;;;;;;7367741;19;20015;-83
2022/11/01 03:00:46;;;;;;;19.27;2.15;;;16.80;66.10;;;;;;7370643;19;20355;-83
2022/11/01 03:03:21;;;;;;;14.52;2.20;;;16.80;66.10;;;;;;7374422;19;20019;-83
2022/11/01 03:06:07;;;;;;;14.77;2.03;;;16.80;66.10;;;;;;7376758;19;20089;-83
2022/11/01 03:08:40;;;;;;;11.73;2.15;;;16.90;66.00;;;;;;7375692;19;20485;-83
2022/11/01 03:11:12;;;;;;;17.58;1.85;;;17.00;66.00;;;;;;7371308;19;20105;-82
2022/11/01 03:13:55;;;;;;;20.85;2.13;;;16.80;66.00;;;;;;7387978;19;20018;-83
2022/11/01 03:16:33;;;;;;;20.25;2.45;;;16.80;66.30;;;;;;7367380;19;20011;-82
2022/11/01 03:19:11;;;;;;;18.88;2.15;;;16.80;66.10;;;;;;7364812;19;20113;-82
2022/11/01 03:21:43;;;;;;;10.65;2.03;;;16.90;66.30;;;;;;7366892;19;20017;-82
2022/11/01 03:24:20;;;;;;;11.13;1.80;;;16.80;66.20;;;;;;7365078;19;20015;-82
2022/11/01 03:26:55;;;;;;;11.55;2.25;;;16.90;66.40;;;;;;7368173;19;20090;-82
2022/11/01 03:29:27;;;;;;;18.92;1.73;;;16.90;66.60;;;;;;7365499;19;20078;-83
2022/11/01 03:31:57;;;;;;;13.15;1.92;;;16.80;66.70;;;;;;7379789;19;20018;-82
2022/11/01 03:34:28;;;;;;;25.13;2.38;;;16.70;66.80;;;;;;7387182;19;20019;-83
2022/11/01 03:37:02;;;;;;;15.18;2.13;;;16.60;67.00;;;;;;7364839;19;20015;-83
2022/11/01 03:39:35;;;;;;;15.02;2.30;;;16.60;67.20;;;;;;7365389;19;20026;-82
2022/11/01 03:42:09;;;;;;;16.77;3.42;;;16.50;67.60;;;;;;7367998;19;20061;-83
2022/11/01 03:44:42;;;;;;;16.65;2.85;;;16.50;67.60;;;;;;7373631;19;20015;-83
2022/11/01 03:47:12;;;;;;;15.77;2.47;;;16.40;68.10;;;;;;7375381;19;20434;-82
2022/11/01 03:49:43;;;;;;;17.90;2.63;;;16.40;67.90;;;;;;7397741;19;20075;-84
2022/11/01 03:52:12;;;;;;;16.83;2.20;;;16.50;67.70;;;;;;7378761;19;20097;-84
2022/11/01 03:54:40;;;;;;;26.60;3.65;;;16.60;67.70;;;;;;7379939;19;20093;-83
2022/11/01 03:57:09;;;;;;;15.43;1.85;;;16.60;67.70;;;;;;7376583;19;20378;-83
2022/11/01 03:59:38;;;;;;;17.73;2.20;;;16.70;67.60;;;;;;7375531;19;20031;-83
2022/11/01 04:02:06;;;;;;;19.10;2.50;;;16.70;67.30;;;;;;7379582;19;20099;-83
2022/11/01 04:04:38;;;;;;;14.63;2.30;;;16.70;67.20;;;;;;7396460;19;20023;-83
2022/11/01 04:07:09;;;;;;;15.40;1.80;;;16.80;67.20;;;;;;7374605;19;20724;-83
2022/11/01 04:09:38;;;;;;;15.90;1.73;;;16.70;67.20;;;;;;7375912;19;20015;-83
2022/11/01 04:12:08;;;;;;;19.73;2.28;;;16.70;67.10;;;;;;7377765;19;20023;-83
2022/11/01 04:22:42;;;;;;;14.43;2.17;;;16.40;67.50;;;;;;7408534;19;20025;-85
2022/11/01 04:25:11;;;;;;;21.00;2.08;;;16.50;67.70;;;;;;7378183;19;20189;-84
2022/11/01 04:27:39;;;;;;;13.65;2.22;;;16.50;67.50;;;;;;7377658;19;20035;-84
2022/11/01 04:30:09;;;;;;;22.15;2.30;;;16.50;67.70;;;;;;7379313;19;20113;-84
2022/11/01 04:32:38;;;;;;;13.63;1.88;;;16.50;67.70;;;;;;7379267;19;20019;-84
2022/11/01 04:35:10;;;;;;;21.80;2.78;;;16.60;67.20;;;;;;7386752;19;20074;-84
2022/11/01 04:37:41;;;;;;;23.38;2.30;;;16.40;67.20;;;;;;7404188;19;20025;-84
2022/11/01 04:40:12;;;;;;;22.05;2.72;;;16.50;67.50;;;;;;7376094;19;20640;-84
2022/11/01 04:42:41;;;;;;;19.58;2.17;;;16.40;67.40;;;;;;7375477;19;20015;-85
2022/11/01 04:45:11;;;;;;;21.83;3.20;;;16.30;68.00;;;;;;7374478;19;20690;-84
2022/11/01 04:47:49;;;;;;;14.38;2.10;;;16.30;68.10;;;;;;7373241;19;20392;-83
2022/11/01 04:50:18;;;;;;;30.55;2.58;;;16.40;68.30;;;;;;7375254;19;20037;-83
2022/11/01 04:52:49;;;;;;;21.05;2.53;;;16.40;67.90;;;;;;7393735;19;20028;-83
2022/11/01 04:55:18;;;;;;;;;;;16.40;68.10;;;;;;7372791;19;20572;-83
2022/11/01 04:57:47;;;;;;;27.17;2.72;;;16.50;68.20;;;;;;7373506;19;19991;-83
2022/11/01 05:00:18;;;;;;;19.15;2.83;;;16.50;68.10;;;;;;7372126;19;20019;-83
2022/11/01 05:02:47;;;;;;;17.92;2.90;;;16.50;68.00;;;;;;7372102;19;20011;-83
2022/11/01 05:05:15;;;;;;;19.98;2.65;;;16.50;68.70;;;;;;7374947;19;20815;-82
2022/11/01 05:07:44;;;;;;;28.42;3.13;;;16.40;68.00;;;;;;7394341;19;20022;-85
2022/11/01 05:10:15;;;;;;;25.63;3.08;;;16.40;68.10;;;;;;7373988;19;20019;-85
2022/11/01 05:12:44;;;;;;;13.48;2.55;;;16.40;68.10;;;;;;7375401;19;20007;-84
2022/11/01 05:15:13;;;;;;;26.48;3.40;;;16.40;68.20;;;;;;7380175;19;20081;-84
2022/11/01 05:17:43;;;;;;;24.15;2.70;;;16.40;68.30;;;;;;7379705;19;20036;-83
2022/11/01 05:20:13;;;;;;;24.00;2.30;;;16.40;68.40;;;;;;7381154;19;20393;-83
2022/11/01 05:22:41;;;;;;;21.73;2.30;;;16.40;68.20;;;;;;7401983;19;20022;-83
2022/11/01 05:25:10;;;;;;;19.65;2.50;;;16.20;68.60;;;;;;7374657;19;20065;-83
2022/11/01 05:27:42;;;;;;;16.42;2.63;;;16.30;68.80;;;;;;7372214;19;20011;-83
2022/11/01 05:30:12;;;;;;;23.33;2.78;;;16.30;68.60;;;;;;7374405;19;20082;-84
2022/11/01 05:32:41;;;;;;;13.63;2.28;;;16.30;68.60;;;;;;7372835;19;20502;-82
2022/11/01 05:35:11;;;;;;;20.27;2.40;;;16.30;68.60;;;;;;7373532;19;20022;-82
2022/11/01 05:37:39;;;;;;;23.77;2.95;;;16.30;68.70;;;;;;7395171;19;20398;-82
2022/11/01 05:40:10;;;;;;;20.27;2.70;;;16.30;68.70;;;;;;7383531;19;20043;-82
2022/11/01 05:42:42;;;;;;;22.63;2.78;;;16.30;68.50;;;;;;7391454;19;20018;-81
2022/11/01 05:45:12;;;;;;;24.67;2.60;;;16.30;68.60;;;;;;7378776;19;20034;-82
2022/11/01 05:47:42;;;;;;;24.67;3.03;;;16.30;68.70;;;;;;7374987;19;20323;-83
2022/11/01 05:50:13;;;;;;;17.27;2.92;;;16.30;68.80;;;;;;7371389;19;20018;-82
2022/11/01 05:52:42;;;;;;;21.95;2.78;;;16.20;68.60;;;;;;7394889;19;20022;-82
2022/11/01 05:55:11;;;;;;;29.52;3.25;;;16.20;68.80;;;;;;7372682;19;20049;-83
2022/11/01 05:57:43;;;;;;;30.00;2.83;;;16.20;68.90;;;;;;7376124;19;20732;-82
2022/11/01 06:00:13;;;;;;;21.83;2.58;;;16.20;69.00;;;;;;7374248;19;20023;-82
2022/11/01 06:02:42;;;;;;;23.17;3.33;;;16.20;69.10;;;;;;7372640;19;20505;-82
2022/11/01 06:05:11;;;;;;;26.63;3.35;;;16.20;68.60;;;;;;7374132;19;20101;-82
2022/11/01 06:07:40;;;;;;;32.03;2.75;;;16.10;68.70;;;;;;7404771;19;20022;-82
2022/11/01 06:10:10;;;;;;;35.78;2.80;;;16.10;68.80;;;;;;7374798;19;20021;-82
2022/11/01 06:12:38;;;;;;;24.42;2.25;;;16.20;69.00;;;;;;7374017;19;20015;-83
2022/11/01 06:15:11;;;;;;;25.08;3.65;;;16.20;69.00;;;;;;7370859;19;20688;-83
2022/11/01 06:17:39;;;;;;;24.95;3.10;;;16.20;68.80;;;;;;7371997;19;20014;-83
2022/11/01 06:20:10;;;;;;;18.73;2.65;;;16.20;68.80;;;;;;7371128;19;20021;-84
2022/11/01 06:22:38;;;;;;;26.10;2.85;;;16.10;68.70;;;;;;7392690;19;20026;-83
2022/11/01 06:25:08;;;;;;;28.25;3.05;;;16.10;69.00;;;;;;7369758;19;20355;-83
2022/11/01 06:27:37;;;;;;;21.75;2.70;;;16.10;69.10;;;;;;7370618;19;20062;-83
2022/11/01 06:30:07;;;;;;;29.38;3.28;;;16.10;69.30;;;;;;7373720;19;20030;-83
2022/11/01 06:32:38;;;;;;;22.23;2.88;;;16.10;69.00;;;;;;7370233;19;20027;-83
2022/11/01 06:35:08;;;;;;;37.47;3.10;;;16.10;69.00;;;;;;7368802;19;20019;-84
2022/11/01 06:37:36;;;;;;;24.88;2.88;;;16.10;69.10;;;;;;7393944;19;20118;-84
2022/11/01 06:40:06;;;;;;;31.98;3.15;;;16.00;69.10;;;;;;7371906;19;20063;-84
2022/11/01 06:42:35;;;;;;;25.20;3.28;;;16.00;69.20;;;;;;7371438;19;20082;-84
2022/11/01 06:45:04;;;;;;;34.83;3.42;;;15.90;69.30;;;;;;7371527;19;20044;-84
2022/11/01 06:47:33;;;;;;;26.92;2.90;;;15.70;70.30;;;;;;7370502;19;20014;-84
2022/11/01 06:50:04;;;;;;;16.95;2.72;;;15.80;70.20;;;;;;7371449;19;20395;-83
2022/11/01 06:52:32;;;;;;;27.13;2.90;;;15.90;69.90;;;;;;7405194;19;20031;-84
2022/11/01 06:55:01;;;;;;;25.23;2.50;;;16.00;69.70;;;;;;7381165;19;20022;-84
2022/11/01 06:57:30;;;;;;;34.40;3.25;;;16.00;69.60;;;;;;7377783;19;20105;-84
2022/11/01 06:59:58;;;;;;;26.08;3.00;;;16.10;69.60;;;;;;7380836;19;20019;-82
2022/11/01 07:02:27;;;;;;;23.42;3.42;;;16.10;69.10;;;;;;7371814;19;20031;-82
2022/11/01 07:04:56;;;;;;;20.80;3.10;;;16.10;69.20;;;;;;7383659;19;20026;-81
2022/11/01 07:07:27;;;;;;;29.25;2.95;;;16.10;69.40;;;;;;7392189;19;20448;-82
2022/11/01 07:09:56;;;;;;;27.77;2.83;;;16.10;69.40;;;;;;7368920;19;20026;-83
2022/11/01 07:12:24;;;;;;;22.95;2.75;;;16.10;69.30;;;;;;7369803;19;20558;-82
2022/11/01 07:14:53;;;;;;;24.75;2.92;;;15.90;69.60;;;;;;7370916;19;20090;-83
2022/11/01 07:17:22;;;;;;;22.75;4.00;;;16.00;69.70;;;;;;7368209;19;20121;-82
2022/11/01 07:19:50;;;;;;;18.10;2.70;;;16.10;69.70;;;;;;7388367;19;20054;-83
2022/11/01 07:22:19;;;;;;;22.30;2.75;;;16.10;69.70;;;;;;7371761;19;20018;-83
2022/11/01 07:24:50;;;;;;;28.30;3.35;;;16.20;69.50;;;;;;7372482;19;20118;-83
2022/11/01 07:27:19;;;;;;;19.90;3.03;;;16.30;69.40;;;;;;7371682;19;20090;-83
2022/11/01 07:29:48;;;;;;;30.00;3.08;;;16.40;69.30;;;;;;7369319;19;20082;-83
2022/11/01 07:32:16;;;;;;;24.88;3.05;;;16.40;69.20;;;;;;7370567;19;20110;-82
2022/11/01 07:34:45;;;;;;;24.05;3.22;;;16.40;69.70;;;;;;7395052;19;20054;-83
2022/11/01 07:37:14;;;;;;;19.98;2.80;;;16.30;68.80;;;;;;7381583;19;20022;-83
2022/11/01 07:39:43;;;;;;;23.77;3.40;;;16.40;69.00;;;;;;7380167;19;20059;-83
2022/11/01 07:42:14;;;;;;;22.45;3.15;;;16.40;69.10;;;;;;7369612;19;20076;-82
2022/11/01 07:44:44;;;;;;;22.98;2.80;;;16.30;69.10;;;;;;7370425;19;20019;-83
2022/11/01 07:47:13;;;;;;;20.88;2.55;;;16.30;69.10;;;;;;7369769;19;20015;-87
2022/11/01 07:49:41;;;;;;;31.52;2.92;;;16.30;68.80;;;;;;7392891;19;20094;-87
2022/11/01 07:52:10;;;;;;;20.15;2.42;;;16.40;68.80;;;;;;7371083;19;20097;-87
2022/11/01 07:54:39;;;;;;;23.80;3.00;;;16.40;68.90;;;;;;7371412;19;20066;-88
2022/11/01 07:57:08;;;;;;;27.45;2.95;;;16.50;68.70;;;;;;7374306;19;20066;-87
2022/11/01 07:59:43;;;;;;;27.38;3.92;;;16.40;68.60;;;;;;7372547;19;20014;-88
2022/11/01 08:02:11;;;;;;;22.50;2.15;;;16.50;68.90;;;;;;7371548;19;20029;-89
2022/11/01 08:04:40;;;;;;;30.95;2.42;;;16.50;68.40;;;;;;7395080;19;20018;-88
2022/11/01 08:07:09;;;;;;;37.25;3.20;;;16.50;68.50;;;;;;7371405;19;20017;-86
2022/11/01 08:09:37;;;;;;;24.55;3.20;;;16.40;68.60;;;;;;7369547;19;20020;-86
2022/11/01 08:12:06;;;;;;;17.38;2.22;;;16.30;68.10;;;;;;7370568;19;20078;-89
2022/11/01 08:14:35;;;;;;;26.90;3.15;;;16.40;68.80;;;;;;7375942;19;20019;-88
2022/11/01 08:17:06;;;;;;;28.10;2.80;;;16.40;68.80;;;;;;7372597;19;20034;-89
2022/11/01 08:19:35;;;;;;;23.63;2.97;;;16.60;68.80;;;;;;7398452;19;20018;-89
2022/11/01 08:22:04;;;;;;;25.08;2.60;;;16.60;69.10;;;;;;7381814;19;20026;-89
2022/11/01 08:24:33;;;;;;;21.42;2.83;;;16.50;68.60;;;;;;7384558;19;20037;-89
2022/11/01 08:27:02;;;;;;;25.48;2.83;;;16.60;68.60;;;;;;7397545;19;20066;-88
2022/11/01 08:29:31;;;;;;;25.23;3.50;;;16.60;68.30;;;;;;7404490;19;20026;-89
2022/11/01 08:31:59;;;;;;;21.77;3.08;;;16.50;68.80;;;;;;7399347;19;20541;-89
2022/11/01 08:34:32;;;;;;;19.33;2.20;;;16.60;68.70;;;;;;7405475;19;20022;-89
2022/11/01 08:37:01;;;;;;;29.92;3.28;;;16.60;69.50;;;;;;7381641;19;20017;-88
2022/11/01 08:39:29;;;;;;;32.08;3.33;;;16.70;68.30;;;;;;7378654;19;20086;-88
2022/11/01 08:41:59;;;;;;;22.73;2.67;;;16.80;68.20;;;;;;7377562;19;20018;-87
2022/11/01 08:44:28;;;;;;;17.15;3.00;;;16.80;68.10;;;;;;7380133;19;20018;-87
2022/11/01 08:46:59;;;;;;;20.77;3.45;;;16.90;67.80;;;;;;7393048;19;20027;-87
2022/11/01 08:49:30;;;;;;;18.85;2.58;;;17.00;67.70;;;;;;7402532;19;20019;-88
2022/11/01 08:51:59;;;;;;;22.65;3.05;;;17.00;67.60;;;;;;7383130;19;20058;-87
2022/11/01 08:54:28;;;;;;;30.83;2.70;;;17.00;67.20;;;;;;7383010;19;20007;-88
2022/11/01 08:56:58;;;;;;;27.13;2.63;;;16.90;67.50;;;;;;7381259;19;20015;-87
2022/11/01 08:59:29;;;;;;;13.82;2.28;;;16.90;68.20;;;;;;7381759;19;20017;-88
2022/11/01 09:01:58;;;;;;;27.65;3.22;;;16.80;67.60;;;;;;7383224;19;20039;-86
2022/11/01 09:04:29;;;;;;;30.50;2.90;;;16.90;67.70;;;;;;7405539;19;20052;-87
2022/11/01 09:06:58;;;;;;;21.65;2.30;;;16.90;67.50;;;;;;7390081;19;20014;-88
2022/11/01 09:09:28;;;;;;;22.13;2.70;;;16.80;67.60;;;;;;7392747;19;20018;-88
2022/11/01 09:11:56;;;;;;;31.15;2.60;;;16.90;67.70;;;;;;7387239;19;20029;-89
2022/11/01 09:14:25;;;;;;;24.70;2.58;;;16.90;67.20;;;;;;7381742;19;20071;-89
2022/11/01 09:16:54;;;;;;;17.52;2.30;;;16.80;67.80;;;;;;7401473;19;20018;-88
2022/11/01 09:19:23;;;;;;;17.05;2.25;;;16.90;67.70;;;;;;7380934;19;20038;-89
2022/11/01 09:21:54;;;;;;;19.27;3.17;;;17.00;67.60;;;;;;7383717;19;20010;-90
2022/11/01 09:24:23;;;;;;;16.05;2.42;;;17.00;67.70;;;;;;7387685;19;20014;-89
2022/11/01 09:26:52;;;;;;;26.23;2.85;;;17.00;67.60;;;;;;7379524;19;20457;-87
2022/11/01 09:29:20;;;;;;;25.20;3.58;;;16.80;67.90;;;;;;7375413;19;20018;-86
2022/11/01 09:31:52;;;;;;;20.17;2.40;;;16.70;68.20;;;;;;7397996;19;20094;-87
2022/11/01 09:34:21;;;;;;;29.40;3.05;;;16.90;68.20;;;;;;7374534;19;20518;-87
2022/11/01 09:36:50;;;;;;;28.60;3.60;;;17.10;68.10;;;;;;7352250;19;20891;-87
2022/11/01 09:39:22;;;;;;;22.42;2.63;;;17.20;67.60;;;;;;7374019;19;20128;-87
2022/11/01 09:41:54;;;;;;;15.05;2.38;;;17.30;67.60;;;;;;7395291;19;20018;-86
2022/11/01 09:44:29;;;;;;;30.55;3.15;;;17.20;67.40;;;;;;7380044;19;20013;-84
2022/11/01 09:47:02;;;;;;;22.65;2.00;;;17.20;67.30;;;;;;7386316;19;20022;-84
2022/11/01 09:57:22;;;;;;;31.13;2.88;;;16.60;70.20;;;;;;7400032;19;19998;-85
2022/11/01 10:00:03;;;;;;;21.83;2.75;;;16.60;68.80;;;;;;7411631;19;20356;-85
2022/11/01 10:03:03;;;;;;;18.00;2.45;;;16.60;69.20;;;;;;7388217;19;20032;-87
2022/11/01 10:05:50;;;;;;;18.05;2.33;;;16.80;68.90;;;;;;7384291;19;20014;-85
2022/11/01 22:58:54;;;;;;;18.13;2.40;;;17.30;71.50;;;;;;7396709;19;20036;-79
2022/11/01 23:01:24;;;;;;;15.48;2.53;;;17.40;71.40;;;;;;7393360;19;20030;-79
2022/11/01 23:03:54;;;;;;;11.55;1.90;;;17.50;71.30;;;;;;7388542;19;20022;-79
2022/11/01 23:06:42;;;;;;;18.88;2.33;;;17.50;71.20;;;;;;7383198;19;20018;-77
2022/11/01 23:09:17;;;;;;;14.70;2.35;;;17.40;71.50;;;;;;7385802;19;20036;-78
2022/11/01 23:14:39;;;;;;;20.38;2.92;;;17.50;72.10;;;;;;7388192;19;20035;-78
2022/11/01 23:17:24;;;;;;;20.30;2.50;;;17.30;71.80;;;;;;7396325;19;20018;-78
2022/11/01 23:19:54;;;;;;;16.27;2.20;;;17.30;71.80;;;;;;7396045;19;20472;-78
2022/11/01 23:22:26;;;;;;;15.77;1.95;;;17.30;71.90;;;;;;7391650;19;20081;-78
2022/11/01 23:24:55;;;;;;;12.85;2.28;;;17.40;71.90;;;;;;7390928;19;20505;-78
2022/11/01 23:27:29;;;;;;;15.30;2.53;;;17.40;72.10;;;;;;7391142;19;20019;-77
2022/11/01 23:30:03;;;;;;;16.15;2.13;;;17.20;72.30;;;;;;7394847;19;20019;-78
2022/11/01 23:32:32;;;;;;;12.52;1.70;;;17.20;72.60;;;;;;7394444;19;20022;-78
2022/11/01 23:35:11;;;;;;;13.05;2.33;;;17.30;72.40;;;;;;7393655;19;20448;-79
2022/11/01 23:37:40;;;;;;;15.25;2.17;;;17.30;72.20;;;;;;7393536;19;20015;-78
2022/11/01 23:40:15;;;;;;;15.05;2.70;;;17.40;72.00;;;;;;7394661;19;20632;-78
2022/11/01 23:42:44;;;;;;;14.55;2.10;;;17.30;72.00;;;;;;7394284;19;20051;-78
2022/11/01 23:45:26;;;;;;;16.05;2.40;;;17.20;72.20;;;;;;7392390;19;20021;-78
2022/11/01 23:47:54;;;;;;;23.60;2.30;;;17.10;72.20;;;;;;7393085;19;20052;-78
2022/11/01 23:50:29;;;;;;;11.40;2.28;;;17.30;72.10;;;;;;7394156;19;20022;-77
2022/11/01 23:53:00;;;;;;;13.88;1.90;;;17.20;71.90;;;;;;7395308;19;20490;-78
2022/11/01 23:55:31;;;;;;;9.60;1.67;;;17.20;72.00;;;;;;7393379;19;20101;-78
2022/11/01 23:58:02;;;;;;;12.85;1.98;;;17.20;71.90;;;;;;7391316;19;20138;-78
